This is the latest recevied weather packets stored in our database for station/object WX3I. If no packets are shown the sender has not sent any weather packets the latest 10 day(s).
| Time | Temp. | Humidity | Pressure | Rain* | Wind** | Luminosity | Snow |
|---|---|---|---|---|---|---|---|
| 1778208904 | 12.22° C | 51% | 1010.8 hPa | 0 mm | - | 0 W/m² | - |
| 1778208604 | 12.22° C | 50% | 1010.9 hPa | 0 mm | - | 0 W/m² | - |
| 1778208004 | 12.22° C | 48% | 1010.9 hPa | 0 mm | - | 0 W/m² | - |
| 1778206504 | 12.78° C | 45% | 1010.9 hPa | 0 mm | - | 0 W/m² | - |
| 1778205304 | 12.22° C | 47% | 1010.8 hPa | 0 mm | - | 0 W/m² | - |
| 1778202604 | 11.67° C | 49% | 1010.5 hPa | 0 mm | - | 0 W/m² | - |
| 1778200804 | 12.78° C | 47% | 1010.4 hPa | 0 mm | - | 0 W/m² | - |
| 1778199304 | 13.33° C | 45% | 1010.2 hPa | 0 mm | - | 0 W/m² | - |
| 1778197804 | 14.44° C | 45% | 1010 hPa | 0 mm | - | 29 W/m² | - |
| 1778191504 | 16.67° C | 37% | 1009.8 hPa | 0 mm | - | 441 W/m² | - |
| 1778188204 | 17.22° C | 36% | 1009.6 hPa | 0 mm | - | 658 W/m² | - |
| 1778184304 | 17.22° C | 38% | 1009.7 hPa | 0 mm | - | 903 W/m² | - |
| 1778181604 | 16.67° C | 36% | 1010.1 hPa | 0 mm | - | 1043 W/m² | - |
| 1778181304 | 16.67° C | 36% | 1010.2 hPa | 0 mm | - | 1057 W/m² | - |
| 1778181004 | 16.67° C | 36% | 1010.3 hPa | 0 mm | - | 1070 W/m² | - |
| 1778180104 | 16.11° C | 40% | 1010.5 hPa | 0 mm | - | 1105 W/m² | - |
| 1778175904 | 15.56° C | 43% | 1011.1 hPa | 0 mm | - | 1200 W/m² | - |
| 1778175304 | 15.56° C | 43% | 1011.4 hPa | 0 mm | - | 1203 W/m² | - |
| 1778174404 | 15° C | 43% | 1011.6 hPa | 0 mm | - | 1202 W/m² | - |
| 1778172304 | 14.44° C | 44% | 1012.2 hPa | 0 mm | - | 1178 W/m² | - |
| 1778171104 | 14.44° C | 47% | 1012.4 hPa | 0 mm | - | 1150 W/m² | - |
| 1778170204 | 13.89° C | 46% | 1012.5 hPa | 0 mm | - | 1122 W/m² | - |
| 1778169304 | 13.89° C | 46% | 1012.6 hPa | 0 mm | - | 1089 W/m² | - |
| 1778168404 | 13.89° C | 46% | 1012.9 hPa | 0 mm | - | 1051 W/m² | - |
| 1778168104 | 13.89° C | 48% | 1012.9 hPa | 0 mm | - | 1038 W/m² | - |
* Rain latest hour (hover to see other rain measurements)
** Current wind speed in m/s (hover to see current wind gust speed)